Time;durP1;ratioP1;P1;durP2;ratioP2;P2;SDS_P1;SDS_P2;PMS_P1;PMS_P2;Temp;Humidity;BMP_temperature;BMP_pressure;BME280_temperature;BME280_humidity;BME280_pressure;Samples;Min_cycle;Max_cycle;Signal;HPM_P1;HPM_P2
2022/09/22 00:01:00;;;;;;;7.60;3.70;;;6.10;95.40;;;;;;5030871;28;20442;-73
2022/09/22 00:03:30;;;;;;;9.15;4.00;;;6.10;95.50;;;;;;5026312;28;20029;-72
2022/09/22 00:06:00;;;;;;;10.85;3.80;;;6.10;95.50;;;;;;5033935;28;20120;-72
2022/09/22 00:08:28;;;;;;;9.27;3.83;;;6.10;95.50;;;;;;5030260;28;20065;-72
2022/09/22 00:11:12;;;;;;;10.60;3.92;;;6.00;95.40;;;;;;5025811;28;20482;-72
2022/09/22 00:13:40;;;;;;;8.73;3.67;;;6.00;95.60;;;;;;5032231;28;20124;-72
2022/09/22 00:16:10;;;;;;;5.72;3.17;;;6.00;95.50;;;;;;5033291;28;20420;-73
2022/09/22 00:18:36;;;;;;;8.88;4.03;;;6.00;95.70;;;;;;5033572;28;20090;-72
2022/09/22 00:21:06;;;;;;;8.57;3.35;;;5.90;95.70;;;;;;5035096;28;20038;-73
2022/09/22 00:23:32;;;;;;;7.53;4.13;;;5.90;95.80;;;;;;5030991;28;20029;-72
2022/09/22 00:25:58;;;;;;;6.60;3.20;;;5.90;95.80;;;;;;5027625;28;20061;-73
2022/09/22 00:28:25;;;;;;;7.82;3.47;;;5.80;96.00;;;;;;5041870;28;20043;-73
2022/09/22 00:30:50;;;;;;;7.45;3.55;;;5.80;96.00;;;;;;5034003;28;20033;-73
2022/09/22 00:33:16;;;;;;;6.97;3.53;;;5.80;96.00;;;;;;5030209;28;20029;-73
2022/09/22 00:35:41;;;;;;;6.13;3.70;;;5.70;95.90;;;;;;5033916;28;20041;-73
2022/09/22 00:38:07;;;;;;;13.35;3.67;;;5.70;96.00;;;;;;5038492;28;20072;-72
2022/09/22 00:40:34;;;;;;;10.90;3.80;;;5.70;96.00;;;;;;5039160;28;20034;-73
2022/09/22 00:43:19;;;;;;;9.10;3.70;;;5.70;96.00;;;;;;5030251;28;20025;-73
2022/09/22 00:45:49;;;;;;;8.77;3.40;;;5.70;96.10;;;;;;5033288;28;20083;-72
2022/09/22 00:48:17;;;;;;;7.35;3.20;;;5.70;96.10;;;;;;5030999;28;20039;-72
2022/09/22 00:50:43;;;;;;;8.25;3.30;;;5.70;96.20;;;;;;5025391;28;20041;-73
2022/09/22 00:53:15;;;;;;;7.57;3.83;;;5.70;96.30;;;;;;5029092;28;20461;-73
2022/09/22 00:55:56;;;;;;;6.38;3.38;;;5.60;96.30;;;;;;5033100;28;20032;-73
2022/09/22 00:58:31;;;;;;;10.70;3.67;;;5.60;96.30;;;;;;5032081;28;20044;-73
2022/09/22 01:00:57;;;;;;;6.07;3.35;;;5.60;96.30;;;;;;5030101;28;20160;-73
2022/09/22 01:03:25;;;;;;;6.95;3.33;;;5.50;96.30;;;;;;5025157;28;20050;-73
2022/09/22 01:05:53;;;;;;;5.90;3.00;;;5.50;96.30;;;;;;5032969;28;20029;-72
2022/09/22 01:08:20;;;;;;;4.43;3.00;;;5.50;96.30;;;;;;5039389;28;20068;-73
2022/09/22 01:10:48;;;;;;;4.93;3.03;;;5.40;96.30;;;;;;5045464;28;20120;-73
2022/09/22 01:13:36;;;;;;;5.88;3.20;;;5.40;96.20;;;;;;5030032;28;20087;-73
2022/09/22 01:16:12;;;;;;;9.05;3.17;;;5.50;96.30;;;;;;5031482;28;20382;-73
2022/09/22 01:19:15;;;;;;;6.22;3.58;;;5.40;96.30;;;;;;5030052;28;20112;-73
2022/09/22 01:22:08;;;;;;;4.53;3.05;;;5.40;96.30;;;;;;5041557;28;20049;-73
2022/09/22 01:25:05;;;;;;;5.90;3.40;;;5.40;96.30;;;;;;5027048;28;20026;-73
2022/09/22 01:27:54;;;;;;;7.35;3.45;;;5.30;96.30;;;;;;5032569;28;20041;-72
2022/09/22 01:30:24;;;;;;;7.55;3.53;;;5.30;96.30;;;;;;5032182;28;20060;-73
2022/09/22 01:33:11;;;;;;;7.88;3.40;;;5.30;96.30;;;;;;5027560;28;20087;-73
2022/09/22 01:35:42;;;;;;;10.05;3.97;;;5.30;96.40;;;;;;5023938;28;20033;-73
2022/09/22 01:38:30;;;;;;;6.65;3.30;;;5.30;96.40;;;;;;5027209;28;20033;-73
2022/09/22 01:41:02;;;;;;;9.77;3.78;;;5.40;96.60;;;;;;5025683;28;20064;-73
2022/09/22 01:43:38;;;;;;;7.50;3.35;;;5.30;96.70;;;;;;5029387;28;20482;-73
2022/09/22 01:46:13;;;;;;;6.32;3.85;;;5.30;96.60;;;;;;5030364;28;20037;-73
2022/09/22 01:48:44;;;;;;;7.57;3.83;;;5.20;96.60;;;;;;5027424;28;20057;-73
2022/09/22 01:51:26;;;;;;;5.20;3.25;;;5.20;96.70;;;;;;5030153;28;20071;-73
2022/09/22 01:53:59;;;;;;;8.52;3.47;;;5.20;96.70;;;;;;5024607;28;20033;-73
2022/09/22 01:56:27;;;;;;;7.60;3.88;;;5.10;96.70;;;;;;5028107;28;20124;-73
2022/09/22 01:58:56;;;;;;;6.38;3.67;;;5.10;96.70;;;;;;5021161;28;20029;-73
2022/09/22 02:01:27;;;;;;;10.20;3.45;;;5.10;96.70;;;;;;5026612;28;20129;-73
2022/09/22 02:06:38;;;;;;;7.00;3.78;;;5.10;96.80;;;;;;5225002;22;20065;-87
2022/09/22 02:09:11;;;;;;;5.22;3.20;;;5.10;96.80;;;;;;5044967;28;20394;-85
2022/09/22 02:11:37;;;;;;;8.90;4.38;;;5.10;96.80;;;;;;5047720;28;20024;-85
2022/09/22 02:14:03;;;;;;;6.10;3.88;;;5.10;97.00;;;;;;5052401;28;20210;-84
2022/09/22 02:16:30;;;;;;;10.80;4.07;;;5.10;96.90;;;;;;5050577;28;20033;-84
2022/09/22 02:19:02;;;;;;;7.75;4.15;;;5.10;96.90;;;;;;5048211;28;20100;-84
2022/09/22 02:21:28;;;;;;;6.07;4.13;;;5.10;97.10;;;;;;5049550;28;20037;-84
2022/09/22 02:23:53;;;;;;;6.15;3.70;;;5.10;96.90;;;;;;5049587;28;20114;-85
2022/09/22 02:26:27;;;;;;;10.55;3.97;;;5.00;97.00;;;;;;5050321;28;20029;-83
2022/09/22 02:29:03;;;;;;;7.35;4.03;;;5.00;97.00;;;;;;5050493;28;20132;-85
2022/09/22 02:31:32;;;;;;;8.05;4.30;;;5.00;97.20;;;;;;5050386;28;20074;-85
2022/09/22 02:33:58;;;;;;;11.05;4.40;;;5.10;97.30;;;;;;5050448;28;20120;-84
2022/09/22 02:36:37;;;;;;;13.32;4.85;;;5.00;97.10;;;;;;5048877;28;20029;-85
2022/09/22 02:39:08;;;;;;;7.53;5.00;;;5.00;97.20;;;;;;5047400;28;20116;-85
2022/09/22 02:41:46;;;;;;;;;;;4.90;97.10;;;;;;5050323;28;20031;-86
2022/09/22 02:44:22;;;;;;;7.70;4.50;;;5.00;97.30;;;;;;5046620;28;19905;-86
2022/09/22 02:47:39;;;;;;;11.18;4.88;;;5.00;97.30;;;;;;5048228;28;20329;-85
2022/09/22 02:50:09;;;;;;;11.10;5.45;;;4.90;97.30;;;;;;5013066;28;20101;-84
2022/09/22 02:52:37;;;;;;;11.00;5.55;;;4.90;97.40;;;;;;5048556;28;20025;-89
2022/09/22 02:55:03;;;;;;;10.63;5.30;;;5.00;97.40;;;;;;5045342;28;20048;-86
2022/09/22 02:57:29;;;;;;;11.15;6.15;;;5.00;97.40;;;;;;5045297;28;20032;-85
2022/09/22 02:59:54;;;;;;;12.38;5.95;;;5.00;97.40;;;;;;5042383;28;20048;-88
2022/09/22 03:02:20;;;;;;;10.55;6.20;;;4.90;97.40;;;;;;5043892;28;20037;-85
2022/09/22 03:04:45;;;;;;;12.60;6.82;;;5.00;97.60;;;;;;5047290;28;20090;-83
2022/09/22 03:07:11;;;;;;;9.52;6.63;;;5.00;97.60;;;;;;5029529;28;20418;-84
2022/09/22 03:09:36;;;;;;;11.20;6.30;;;5.00;97.60;;;;;;5026268;28;20441;-83
2022/09/22 03:12:02;;;;;;;7.38;5.22;;;4.90;97.50;;;;;;5032445;28;20132;-84
2022/09/22 03:14:28;;;;;;;14.20;6.50;;;4.90;97.60;;;;;;5030828;28;20044;-85
2022/09/22 03:16:53;;;;;;;12.75;6.53;;;4.80;97.50;;;;;;5028218;28;20026;-84
2022/09/22 03:19:19;;;;;;;10.68;6.18;;;4.70;97.50;;;;;;5030687;28;20129;-85
2022/09/22 03:21:44;;;;;;;10.93;5.70;;;4.70;97.50;;;;;;5045158;28;20025;-84
2022/09/22 03:24:10;;;;;;;10.70;5.75;;;4.70;97.60;;;;;;5032201;28;20026;-84
2022/09/22 03:26:35;;;;;;;17.73;6.00;;;4.60;97.60;;;;;;5028973;28;20032;-85
2022/09/22 03:29:01;;;;;;;9.05;6.05;;;4.60;97.50;;;;;;5027682;28;21428;-86
2022/09/22 03:31:26;;;;;;;9.30;5.88;;;4.60;97.50;;;;;;5030649;28;20030;-84
2022/09/22 03:33:52;;;;;;;7.32;5.35;;;4.60;97.50;;;;;;5031453;28;20113;-86
2022/09/22 03:36:17;;;;;;;9.63;6.07;;;4.60;97.50;;;;;;5027057;28;20098;-87
2022/09/22 03:38:43;;;;;;;10.82;5.78;;;4.50;97.50;;;;;;5026643;28;20056;-85
2022/09/22 03:41:08;;;;;;;10.20;5.95;;;4.50;97.50;;;;;;5027785;28;20091;-84
2022/09/22 03:43:34;;;;;;;9.25;5.85;;;4.50;97.40;;;;;;5023808;28;20107;-84
2022/09/22 03:46:01;;;;;;;9.55;5.22;;;4.40;97.40;;;;;;5030324;28;20041;-86
2022/09/22 03:48:28;;;;;;;11.27;5.80;;;4.40;97.40;;;;;;5024065;28;20022;-84
2022/09/22 03:50:57;;;;;;;8.82;5.13;;;4.40;97.40;;;;;;5019977;28;20037;-86
2022/09/22 03:53:23;;;;;;;9.68;6.07;;;4.40;97.40;;;;;;5026096;28;20167;-87
2022/09/22 03:55:50;;;;;;;8.65;6.10;;;4.40;97.40;;;;;;5035594;28;20073;-84
2022/09/22 03:58:16;;;;;;;10.73;6.30;;;4.40;97.40;;;;;;5029696;28;20034;-86
2022/09/22 04:00:41;;;;;;;12.18;6.32;;;4.40;97.40;;;;;;5027100;28;20036;-86
2022/09/22 04:03:07;;;;;;;11.38;5.88;;;4.40;97.40;;;;;;5023750;28;20462;-84
2022/09/22 04:05:33;;;;;;;9.73;6.28;;;4.30;97.40;;;;;;5026720;28;20067;-84
2022/09/22 04:07:59;;;;;;;8.70;6.05;;;4.30;97.40;;;;;;5027163;28;20131;-85
2022/09/22 04:10:25;;;;;;;9.30;6.10;;;4.30;97.30;;;;;;5032192;28;20021;-86
2022/09/22 04:12:51;;;;;;;9.63;6.38;;;4.20;97.30;;;;;;5032915;28;20030;-86
2022/09/22 04:15:16;;;;;;;11.32;7.18;;;4.40;97.50;;;;;;5032314;28;20396;-85
2022/09/22 04:17:42;;;;;;;8.45;5.35;;;4.40;97.40;;;;;;5032609;28;20212;-86
2022/09/22 04:20:10;;;;;;;9.45;6.07;;;4.40;97.50;;;;;;5036536;28;20460;-85
2022/09/22 04:22:36;;;;;;;13.07;6.90;;;4.30;97.50;;;;;;5034666;28;20084;-89
2022/09/22 04:25:02;;;;;;;13.15;6.97;;;4.30;97.50;;;;;;5035788;28;20495;-87
2022/09/22 04:27:27;;;;;;;17.73;7.15;;;4.30;97.50;;;;;;5041327;28;20026;-82
2022/09/22 04:29:53;;;;;;;10.98;6.60;;;4.30;97.50;;;;;;5030009;28;20021;-82
2022/09/22 04:32:18;;;;;;;12.05;7.00;;;4.20;97.50;;;;;;5026588;28;20113;-83
2022/09/22 04:34:44;;;;;;;14.05;7.70;;;4.20;97.50;;;;;;5011786;28;20038;-83
2022/09/22 04:37:10;;;;;;;13.98;7.88;;;4.20;97.50;;;;;;5036309;28;20074;-82
2022/09/22 04:39:36;;;;;;;12.02;7.57;;;4.20;97.50;;;;;;5030164;28;20452;-82
2022/09/22 04:42:02;;;;;;;13.80;7.85;;;4.20;97.60;;;;;;5032188;28;20053;-84
2022/09/22 04:44:28;;;;;;;12.15;7.78;;;4.20;97.50;;;;;;5028907;28;20368;-84
2022/09/22 04:46:54;;;;;;;13.30;7.95;;;4.20;97.50;;;;;;5024035;28;20128;-84
2022/09/22 04:49:20;;;;;;;12.63;8.18;;;4.10;97.50;;;;;;5028550;28;20103;-83
2022/09/22 04:51:46;;;;;;;11.98;7.88;;;4.10;97.60;;;;;;5030801;28;20025;-84
2022/09/22 04:54:13;;;;;;;13.90;8.05;;;4.10;97.60;;;;;;5029733;28;20384;-84
2022/09/22 04:56:42;;;;;;;14.95;7.93;;;4.20;97.70;;;;;;5007738;28;20487;-89
2022/09/22 04:59:08;;;;;;;14.40;7.78;;;4.20;97.60;;;;;;5030381;28;20051;-83
2022/09/22 05:01:35;;;;;;;15.93;8.45;;;4.20;97.70;;;;;;5027683;28;20026;-83
2022/09/22 05:04:01;;;;;;;18.88;8.52;;;4.10;97.70;;;;;;5032026;28;20094;-86
2022/09/22 05:06:26;;;;;;;15.90;8.52;;;4.10;97.70;;;;;;5028029;28;20121;-83
2022/09/22 05:08:52;;;;;;;12.48;7.80;;;4.10;97.60;;;;;;5035623;28;20510;-86
2022/09/22 05:11:20;;;;;;;13.52;8.43;;;4.10;97.70;;;;;;5038482;28;20463;-83
2022/09/22 05:13:46;;;;;;;14.02;8.25;;;4.10;97.60;;;;;;5027339;28;20089;-83
2022/09/22 05:16:12;;;;;;;17.33;8.68;;;4.20;97.70;;;;;;5030111;28;20036;-85
2022/09/22 05:18:38;;;;;;;14.40;8.82;;;4.20;97.70;;;;;;5035022;28;20356;-85
2022/09/22 05:21:06;;;;;;;19.25;9.68;;;4.10;97.70;;;;;;5034992;28;20101;-84
2022/09/22 05:23:31;;;;;;;13.02;8.95;;;4.10;97.70;;;;;;5028601;28;20041;-84
2022/09/22 05:25:57;;;;;;;16.48;10.32;;;4.20;97.70;;;;;;5029607;28;20752;-85
2022/09/22 05:28:23;;;;;;;20.30;10.98;;;4.20;97.80;;;;;;5035257;28;20074;-84
2022/09/22 05:30:50;;;;;;;17.67;10.75;;;4.30;97.80;;;;;;5034906;28;20026;-84
2022/09/22 05:33:16;;;;;;;18.83;11.20;;;4.20;97.80;;;;;;5035082;28;20021;-84
2022/09/22 05:35:41;;;;;;;17.08;10.80;;;4.20;97.80;;;;;;5033320;28;20033;-85
2022/09/22 05:38:07;;;;;;;15.75;9.65;;;4.30;97.80;;;;;;5034157;28;20107;-85
2022/09/22 05:40:32;;;;;;;21.60;10.57;;;4.30;97.80;;;;;;5034554;28;20501;-85
2022/09/22 05:42:58;;;;;;;15.68;10.00;;;4.30;97.80;;;;;;5033119;28;20124;-84
2022/09/22 05:45:23;;;;;;;18.48;8.77;;;4.30;97.80;;;;;;5040904;28;20112;-84
2022/09/22 05:47:49;;;;;;;17.27;9.25;;;4.40;97.80;;;;;;5041540;28;20465;-84
2022/09/22 05:50:17;;;;;;;15.13;8.55;;;4.40;97.80;;;;;;5033528;28;20060;-84
2022/09/22 05:52:42;;;;;;;17.92;8.85;;;4.50;97.70;;;;;;5031098;28;20053;-87
2022/09/22 05:55:08;;;;;;;16.88;8.82;;;4.50;97.80;;;;;;5034013;28;20391;-85
2022/09/22 05:57:34;;;;;;;13.50;8.38;;;4.50;97.80;;;;;;5029722;28;20041;-84
2022/09/22 06:00:00;;;;;;;16.33;8.48;;;4.60;97.80;;;;;;5033418;28;20530;-84
2022/09/22 06:02:25;;;;;;;14.30;7.55;;;4.60;97.80;;;;;;5035836;28;20045;-84
2022/09/22 06:04:51;;;;;;;15.55;8.23;;;4.60;97.80;;;;;;5033996;28;20025;-85
2022/09/22 06:07:21;;;;;;;13.75;9.05;;;4.60;97.80;;;;;;5036340;28;20041;-84
2022/09/22 06:09:47;;;;;;;16.38;8.48;;;4.70;97.90;;;;;;5037833;28;20518;-83
2022/09/22 06:12:13;;;;;;;16.55;8.75;;;4.80;97.90;;;;;;5026560;28;20076;-86
2022/09/22 06:14:39;;;;;;;14.45;9.13;;;4.80;97.80;;;;;;5020779;28;20049;-84
2022/09/22 06:17:06;;;;;;;16.58;8.95;;;4.90;97.90;;;;;;5025037;28;20334;-86
2022/09/22 06:19:32;;;;;;;17.10;9.15;;;5.00;98.00;;;;;;5026474;28;20033;-84
2022/09/22 06:21:57;;;;;;;16.50;10.10;;;5.10;98.00;;;;;;5020926;28;20395;-85
2022/09/22 06:24:23;;;;;;;16.77;9.90;;;5.20;98.00;;;;;;5026596;28;20052;-87
2022/09/22 06:26:49;;;;;;;16.23;9.75;;;5.30;98.10;;;;;;5031954;28;20040;-85
2022/09/22 06:29:15;;;;;;;19.42;10.60;;;5.40;98.10;;;;;;5034127;28;20036;-85
2022/09/22 06:31:40;;;;;;;16.48;10.32;;;5.40;98.10;;;;;;5025825;28;20100;-85
2022/09/22 06:34:07;;;;;;;18.98;10.07;;;5.50;98.20;;;;;;5019942;28;20049;-84
2022/09/22 06:36:33;;;;;;;19.00;10.27;;;5.60;98.20;;;;;;5030146;28;20349;-84
2022/09/22 06:38:59;;;;;;;21.40;10.05;;;5.80;98.30;;;;;;5029375;28;20045;-83
2022/09/22 06:41:26;;;;;;;18.42;9.85;;;5.80;98.30;;;;;;5031881;28;20029;-83
2022/09/22 06:43:54;;;;;;;15.25;9.30;;;6.00;98.30;;;;;;5031162;28;20171;-84
2022/09/22 06:46:25;;;;;;;16.45;9.93;;;6.10;98.30;;;;;;5034732;28;20029;-84
2022/09/22 06:48:55;;;;;;;18.67;8.77;;;6.20;98.40;;;;;;5031970;28;20126;-83
2022/09/22 06:51:21;;;;;;;19.83;8.15;;;6.30;98.50;;;;;;5021152;28;20483;-84
2022/09/22 06:53:46;;;;;;;14.35;9.02;;;6.40;98.40;;;;;;5034628;28;20116;-84
2022/09/22 06:56:12;;;;;;;21.90;9.05;;;6.50;98.40;;;;;;5021906;28;20350;-84
2022/09/22 06:58:37;;;;;;;19.02;8.85;;;6.60;98.40;;;;;;5044396;28;20060;-83
2022/09/22 07:01:05;;;;;;;20.45;8.02;;;6.70;98.40;;;;;;5031709;28;20092;-84
2022/09/22 07:03:31;;;;;;;18.27;8.45;;;6.80;98.50;;;;;;5030620;28;20496;-83
2022/09/22 07:06:01;;;;;;;15.98;7.43;;;7.00;98.50;;;;;;5032750;28;20037;-83
2022/09/22 07:08:28;;;;;;;19.77;7.40;;;7.10;98.50;;;;;;5022427;28;20349;-83
2022/09/22 07:10:56;;;;;;;12.52;6.75;;;7.20;98.50;;;;;;5046159;28;20040;-89
2022/09/22 07:13:23;;;;;;;13.35;7.05;;;7.30;98.50;;;;;;5027856;28;20048;-85
2022/09/22 07:15:48;;;;;;;16.35;6.95;;;7.50;98.50;;;;;;5029680;28;20037;-83
2022/09/22 07:18:14;;;;;;;18.55;6.78;;;7.60;98.40;;;;;;5041031;28;20035;-83
2022/09/22 07:20:40;;;;;;;18.00;7.38;;;7.80;98.40;;;;;;5030335;28;20061;-82
2022/09/22 07:23:15;;;;;;;18.05;7.10;;;8.00;98.00;;;;;;5021829;28;20034;-83
2022/09/22 07:25:40;;;;;;;12.93;6.40;;;8.00;97.50;;;;;;5029887;28;20504;-84
2022/09/22 07:28:10;;;;;;;14.60;6.90;;;8.10;97.10;;;;;;5028688;28;20057;-84
2022/09/22 07:30:36;;;;;;;11.98;6.57;;;8.30;96.90;;;;;;5029109;28;20392;-82
2022/09/22 07:33:02;;;;;;;11.10;5.63;;;8.40;96.40;;;;;;5025256;28;20026;-85
2022/09/22 07:35:28;;;;;;;15.98;5.50;;;8.60;95.70;;;;;;5029010;28;20038;-85
2022/09/22 07:37:55;;;;;;;9.77;4.75;;;8.70;94.90;;;;;;5027135;28;20037;-86
2022/09/22 07:40:21;;;;;;;11.85;4.38;;;8.80;94.70;;;;;;5033167;28;20459;-85
2022/09/22 07:42:50;;;;;;;7.20;3.67;;;9.00;94.10;;;;;;5034198;28;20022;-85
2022/09/22 07:45:15;;;;;;;13.07;3.95;;;9.10;93.60;;;;;;5032306;28;20407;-84
2022/09/22 07:50:29;;;;;;;8.88;3.70;;;9.30;93.10;;;;;;5035066;28;20076;-85
2022/09/22 07:52:55;;;;;;;7.68;2.35;;;9.40;93.20;;;;;;5038517;28;20040;-85
2022/09/22 07:55:23;;;;;;;7.40;1.98;;;9.50;93.20;;;;;;5038863;28;20021;-85
2022/09/22 07:57:54;;;;;;;9.63;2.53;;;9.60;92.80;;;;;;5045248;28;20038;-85
2022/09/22 08:00:21;;;;;;;6.55;1.70;;;9.70;92.80;;;;;;5038683;28;20101;-88
2022/09/22 08:02:55;;;;;;;7.40;1.80;;;10.00;92.90;;;;;;5052156;28;20041;-84
2022/09/22 08:05:23;;;;;;;5.20;1.55;;;10.20;92.00;;;;;;5039700;28;20042;-84
2022/09/22 08:07:48;;;;;;;4.45;1.52;;;10.40;91.10;;;;;;5036316;28;20040;-86
2022/09/22 08:10:15;;;;;;;6.75;1.52;;;10.50;89.70;;;;;;5037760;28;20026;-85
2022/09/22 08:12:41;;;;;;;3.20;1.13;;;10.70;89.50;;;;;;5033452;28;20026;-84
2022/09/22 08:15:07;;;;;;;5.40;1.70;;;10.90;88.50;;;;;;5038296;28;20109;-85
2022/09/22 08:17:33;;;;;;;6.63;1.40;;;11.20;86.30;;;;;;5040554;28;20029;-88
2022/09/22 08:20:02;;;;;;;3.22;0.93;;;11.50;85.90;;;;;;5050307;28;20072;-84
2022/09/22 08:22:27;;;;;;;2.65;1.05;;;11.70;86.80;;;;;;5039512;28;20322;-86
2022/09/22 08:24:53;;;;;;;3.33;1.00;;;12.00;85.90;;;;;;5030482;28;20036;-84
2022/09/22 08:27:19;;;;;;;6.28;1.00;;;12.10;83.20;;;;;;5035383;28;20097;-85
2022/09/22 08:29:45;;;;;;;5.30;1.15;;;12.50;83.20;;;;;;5035387;28;20108;-85
2022/09/22 08:32:11;;;;;;;5.40;0.98;;;12.80;83.10;;;;;;5034873;28;20025;-85
2022/09/22 08:34:37;;;;;;;2.55;0.90;;;12.90;82.30;;;;;;5032368;28;20184;-86
2022/09/22 08:37:03;;;;;;;1.73;0.75;;;13.10;83.00;;;;;;5034043;28;20045;-85
2022/09/22 08:39:29;;;;;;;4.13;0.65;;;13.30;79.60;;;;;;5039631;28;20096;-85
2022/09/22 08:42:17;;;;;;;2.33;0.75;;;13.50;78.50;;;;;;5035185;28;20445;-85
2022/09/22 08:45:01;;;;;;;3.20;0.60;;;13.70;77.80;;;;;;5032423;28;20013;-85
2022/09/22 08:53:34;;;;;;;2.88;0.70;;;14.30;75.40;;;;;;5027252;28;20052;-84
2022/09/22 08:56:13;;;;;;;6.00;0.70;;;14.40;72.00;;;;;;5029430;28;20104;-84
2022/09/22 08:58:57;;;;;;;3.17;0.80;;;14.60;73.40;;;;;;5022180;28;20052;-83
2022/09/22 09:01:55;;;;;;;2.45;0.50;;;14.80;73.20;;;;;;5035587;28;20029;-84
2022/09/22 09:04:57;;;;;;;2.53;0.60;;;15.00;72.10;;;;;;5034876;28;20338;-83
2022/09/22 09:07:42;;;;;;;5.97;0.80;;;15.10;71.50;;;;;;5041046;28;20473;-84
2022/09/22 09:10:41;;;;;;;5.53;0.82;;;15.30;72.00;;;;;;5044401;28;20503;-83
2022/09/22 09:13:25;;;;;;;3.10;0.80;;;15.30;67.80;;;;;;5031530;28;20030;-83
2022/09/22 09:15:56;;;;;;;3.40;0.90;;;15.40;66.20;;;;;;5032981;28;20017;-83
2022/09/22 09:18:30;;;;;;;2.97;0.50;;;15.50;66.60;;;;;;5029984;28;20052;-83
2022/09/22 09:20:58;;;;;;;4.45;0.60;;;15.60;65.60;;;;;;5032531;28;20396;-84
2022/09/22 09:23:30;;;;;;;2.83;0.65;;;15.70;65.70;;;;;;5025490;28;20469;-86
2022/09/22 09:25:57;;;;;;;2.03;0.63;;;15.90;66.50;;;;;;5025934;28;20044;-85
2022/09/22 09:28:52;;;;;;;2.47;0.93;;;16.00;63.70;;;;;;5028407;28;20041;-84
2022/09/22 09:31:47;;;;;;;1.65;0.50;;;16.00;63.90;;;;;;5029335;28;20480;-86
2022/09/22 09:34:16;;;;;;;6.50;1.10;;;16.30;64.90;;;;;;5032206;28;20356;-86
2022/09/22 09:36:48;;;;;;;4.90;0.70;;;16.50;65.60;;;;;;5033029;28;20029;-86
2022/09/22 09:39:19;;;;;;;4.40;0.70;;;16.50;63.10;;;;;;5026073;28;20671;-85
2022/09/22 09:41:46;;;;;;;3.38;0.50;;;16.50;62.30;;;;;;5027132;28;20036;-84
2022/09/22 09:44:26;;;;;;;4.18;1.00;;;16.60;61.80;;;;;;5033834;28;20036;-84
2022/09/22 09:47:00;;;;;;;4.43;0.80;;;16.80;63.50;;;;;;5040757;28;20033;-86
2022/09/22 09:49:26;;;;;;;2.53;0.50;;;16.80;60.90;;;;;;5019458;28;20027;-84
2022/09/22 09:51:55;;;;;;;2.83;0.93;;;16.80;63.20;;;;;;5032820;28;20025;-85
2022/09/22 09:54:21;;;;;;;4.13;0.60;;;17.00;60.30;;;;;;5025291;28;20029;-85
2022/09/22 09:57:07;;;;;;;4.90;0.57;;;17.10;62.30;;;;;;5030788;28;20052;-85
2022/09/22 10:02:24;;;;;;;3.33;0.57;;;17.10;58.80;;;;;;5039658;28;20037;-85
2022/09/22 10:04:52;;;;;;;2.17;0.70;;;17.30;59.20;;;;;;5029405;28;20476;-86
2022/09/22 10:07:22;;;;;;;5.18;0.73;;;17.40;58.80;;;;;;5034100;28;20158;-86
2022/09/22 10:09:49;;;;;;;3.28;0.57;;;17.40;57.40;;;;;;5029323;28;20033;-85
2022/09/22 10:12:22;;;;;;;4.15;0.70;;;17.50;57.10;;;;;;5041691;28;20029;-84
2022/09/22 10:14:53;;;;;;;4.18;0.60;;;17.50;56.70;;;;;;5024164;28;20044;-86
2022/09/22 10:17:23;;;;;;;2.83;0.75;;;17.50;55.90;;;;;;5045678;28;20025;-86
2022/09/22 10:19:49;;;;;;;2.88;0.60;;;17.50;56.60;;;;;;5030291;28;20091;-86
2022/09/22 10:22:22;;;;;;;6.55;0.85;;;17.70;57.10;;;;;;5028468;28;20137;-84
2022/09/22 10:25:18;;;;;;;5.78;0.65;;;17.70;56.60;;;;;;5029639;28;20025;-87
2022/09/22 10:27:58;;;;;;;6.95;0.90;;;17.80;53.70;;;;;;5037024;28;20099;-84
2022/09/22 10:30:24;;;;;;;2.67;0.80;;;17.80;55.30;;;;;;5029353;28;20057;-85
2022/09/22 10:33:19;;;;;;;3.40;0.80;;;18.00;54.20;;;;;;5030845;28;20385;-85
2022/09/22 10:35:46;;;;;;;7.15;1.00;;;17.90;55.30;;;;;;5034137;28;20021;-87
2022/09/22 10:38:21;;;;;;;5.75;1.00;;;18.30;55.20;;;;;;5030340;28;20033;-86
2022/09/22 10:40:54;;;;;;;3.45;0.70;;;18.10;53.30;;;;;;5031262;28;20049;-85
2022/09/22 10:43:41;;;;;;;6.63;0.70;;;18.40;54.60;;;;;;5034234;28;20060;-85
2022/09/22 10:46:21;;;;;;;4.57;0.50;;;17.50;52.40;;;;;;5035378;28;20021;-85
2022/09/22 10:49:08;;;;;;;4.20;0.88;;;17.40;54.50;;;;;;5019935;28;20025;-84
2022/09/22 10:51:53;;;;;;;2.03;0.63;;;17.90;57.80;;;;;;5044410;28;20033;-84
2022/09/22 10:54:50;;;;;;;4.93;0.82;;;18.50;56.10;;;;;;5029695;28;20341;-84
2022/09/22 10:57:50;;;;;;;4.55;1.10;;;18.50;52.30;;;;;;5030470;28;20020;-84
2022/09/22 11:00:18;;;;;;;1.95;0.50;;;18.20;53.40;;;;;;5024044;28;20033;-83
2022/09/22 11:03:15;;;;;;;2.83;0.70;;;17.60;54.40;;;;;;5030804;28;20462;-84
2022/09/22 11:14:55;;;;;;;4.00;0.80;;;19.00;52.40;;;;;;5021520;28;20040;-84
2022/09/22 11:17:50;;;;;;;5.72;0.80;;;19.40;50.00;;;;;;5035287;28;20132;-85
2022/09/22 11:21:03;;;;;;;3.38;0.70;;;19.60;49.80;;;;;;5036677;28;20070;-85
2022/09/22 11:23:42;;;;;;;3.97;0.70;;;20.30;46.90;;;;;;4986172;28;20022;-86
2022/09/22 11:26:28;;;;;;;4.53;0.65;;;19.80;48.50;;;;;;5020484;28;20033;-86
2022/09/22 11:29:25;;;;;;;3.97;0.80;;;19.30;49.30;;;;;;5034870;28;20033;-86
2022/09/22 11:32:30;;;;;;;4.90;0.63;;;19.20;50.30;;;;;;5035787;28;20175;-84
2022/09/22 11:35:20;;;;;;;4.80;0.70;;;20.20;49.90;;;;;;5027684;28;20329;-86
2022/09/22 11:38:26;;;;;;;3.90;0.70;;;20.00;46.10;;;;;;5031271;28;20361;-87
2022/09/22 11:41:21;;;;;;;2.40;0.55;;;19.80;44.40;;;;;;5031466;28;20164;-87
2022/09/22 11:43:58;;;;;;;2.25;0.43;;;19.10;48.40;;;;;;5026434;28;20448;-85
2022/09/22 11:46:54;;;;;;;4.00;0.80;;;18.90;49.70;;;;;;5034966;28;20029;-85
2022/09/22 11:49:38;;;;;;;4.28;0.70;;;19.60;52.00;;;;;;5043874;28;20101;-89
2022/09/22 11:52:25;;;;;;;2.92;0.75;;;19.20;51.00;;;;;;5025754;28;20055;-85
2022/09/22 11:55:07;;;;;;;6.22;0.95;;;18.80;50.20;;;;;;5039366;28;20467;-85
2022/09/22 11:57:37;;;;;;;4.20;1.13;;;18.50;52.30;;;;;;5040642;28;20029;-85
2022/09/22 12:00:04;;;;;;;4.20;1.00;;;19.10;49.70;;;;;;5038405;28;20060;-85
2022/09/22 12:02:53;;;;;;;3.03;0.73;;;20.00;45.90;;;;;;5036513;28;20072;-85
2022/09/22 12:05:26;;;;;;;3.17;0.90;;;20.20;47.10;;;;;;5024655;28;20050;-86
2022/09/22 12:08:15;;;;;;;1.50;0.50;;;19.90;48.00;;;;;;5035700;28;20041;-86
2022/09/22 12:10:47;;;;;;;6.70;0.93;;;20.20;45.40;;;;;;5052751;28;20467;-86
2022/09/22 12:13:20;;;;;;;6.15;0.93;;;20.60;44.70;;;;;;5031102;28;20056;-88
2022/09/22 12:15:57;;;;;;;2.28;0.68;;;21.40;45.20;;;;;;5022988;28;20440;-86
2022/09/22 12:18:39;;;;;;;4.78;0.60;;;21.80;41.50;;;;;;5027094;28;20040;-85
2022/09/22 12:21:44;;;;;;;5.55;0.85;;;21.60;41.30;;;;;;5028451;28;20197;-88
2022/09/22 12:24:11;;;;;;;1.55;0.50;;;22.00;41.60;;;;;;5011026;28;20113;-85
2022/09/22 12:26:43;;;;;;;2.85;0.70;;;22.50;41.50;;;;;;5021215;28;20048;-88
2022/09/22 12:29:17;;;;;;;4.90;0.77;;;22.00;39.20;;;;;;5026499;28;20048;-86
2022/09/22 12:31:47;;;;;;;2.78;0.80;;;21.80;43.10;;;;;;5024312;28;20120;-85
2022/09/22 12:34:22;;;;;;;5.03;0.70;;;22.50;41.00;;;;;;5025377;28;20332;-89
2022/09/22 12:36:52;;;;;;;4.15;0.73;;;22.50;41.10;;;;;;5042570;28;20128;-85
2022/09/22 12:39:23;;;;;;;3.50;1.00;;;23.00;39.60;;;;;;5023589;28;20116;-86
2022/09/22 12:42:06;;;;;;;2.35;0.70;;;22.70;41.00;;;;;;5025325;28;20022;-85
2022/09/22 12:44:41;;;;;;;3.90;0.63;;;23.00;38.90;;;;;;5028116;28;20573;-86
2022/09/22 12:47:37;;;;;;;5.35;0.70;;;23.00;40.50;;;;;;5026364;28;20179;-86
2022/09/22 12:50:24;;;;;;;4.18;0.60;;;22.80;39.30;;;;;;5028700;28;20330;-85
2022/09/22 12:52:50;;;;;;;3.10;0.45;;;23.30;38.30;;;;;;5024979;28;20081;-86
2022/09/22 12:55:18;;;;;;;5.07;0.75;;;23.90;37.40;;;;;;5026266;28;20413;-85
2022/09/22 12:57:49;;;;;;;2.30;0.55;;;23.80;37.80;;;;;;5028184;28;20104;-85
2022/09/22 13:00:27;;;;;;;2.50;0.55;;;23.10;39.30;;;;;;5030012;28;20533;-86
2022/09/22 13:02:55;;;;;;;2.67;0.65;;;22.50;39.00;;;;;;5029149;28;20484;-87
2022/09/22 13:05:24;;;;;;;2.13;0.70;;;22.80;41.20;;;;;;5021599;28;20042;-85
2022/09/22 13:07:52;;;;;;;2.22;0.50;;;23.20;41.20;;;;;;5033485;28;20026;-85
2022/09/22 13:10:23;;;;;;;1.50;0.40;;;22.70;39.80;;;;;;5033904;28;20033;-85
2022/09/22 13:15:30;;;;;;;3.65;0.77;;;20.70;43.00;;;;;;5035020;28;20069;-84
2022/09/22 13:17:57;;;;;;;4.78;0.60;;;20.10;44.00;;;;;;5031021;28;20362;-85
2022/09/22 13:20:31;;;;;;;2.97;0.50;;;19.80;46.90;;;;;;5031595;28;20091;-84
2022/09/22 13:23:12;;;;;;;4.00;0.80;;;19.20;46.60;;;;;;5031112;28;20137;-84
2022/09/22 13:25:41;;;;;;;6.05;0.63;;;18.80;49.00;;;;;;5030782;28;20121;-86
2022/09/22 13:28:06;;;;;;;1.58;0.55;;;18.90;49.60;;;;;;5033473;28;20029;-84
2022/09/22 13:30:32;;;;;;;3.35;0.70;;;19.90;47.30;;;;;;5032304;28;20029;-85
2022/09/22 13:32:58;;;;;;;3.38;0.80;;;20.80;46.00;;;;;;5042803;28;20128;-85
2022/09/22 13:35:34;;;;;;;2.00;0.47;;;21.20;42.00;;;;;;5029725;28;20609;-85
2022/09/22 13:38:00;;;;;;;4.55;0.65;;;22.30;42.30;;;;;;5029498;28;20120;-85